Hauptseite
METAR-TAF:

METAR-TAF

Flughäfen :

RAF Leeming

Leeming, England

Breite: 54-18N, Länge: 001-32W, Höhe: 40 m

Beobachtung

Neuester Wetterbericht von vor 1 Stunde und 8 Minuten, um 22:50 UTC
Wind 4 kt aus Süd/Südwest
Temperatur 3°C
Luftfeuchtigkeit 75%
Luftdruck 1020 hPa
Sichtweite 10 km oder mehr

METAR: EGXE 232250Z AUTO 21004KT 9999 BKN150/// 03/M01 Q1020

Zeit: 23:58 (23:58 UTC)


TAF: fehlend

Wetterbeobachtungen und Prognosen von mehr als 4000 Flughäfen (METAR und TAF Bericht).

Die verfügbaren Stationen werden durch gelbe und rote Markierungen auf der Karte dargestellt.

Führen Sie die Maus auf sie, um den Namen der Station zu sehen.

Darauf klicken, um die Beobachtung von Wetterbeobachtungen und Prognosen zu sehen.

Um die Karte zu ändern : klicken Sie auf den grünen Tasten mit einem schwarzen Kreuz Zum Vergrößern, auf den grünen Button mit einem Gedankenstrich zu verkleinern, oder auf die grünen Pfeile für benachbarte Karten.


METAR-TAF: